Flight Number: AVA1067 Duration: 0:45
Departure: Bucuresti Otopeni (LROP) at 09:15 Distance: 247.917 Nm
Arrival: Beograd / Surcin (LYBE) at 10:00 Equipment: ATR72

Weather Information
Bucuresti Otopeni, Romania (LROP) 44-33N 026-06E 95M Feb 25, 2021 - 08:00 PM EST / 2021.02.26 0100 UTC
Wind: from the W (270 degrees) at 8 MPH (7 KT):0
Visibility: 1 mile(s):0 Weather: mist Temperature: 39 F (4 C) Dew Point: 39 F (4 C) Relative Humidity: 100% Pressure (altimeter): 30.42 in. Hg (1030 hPa)
ob: LROP 260100Z 27007KT 3000 BR NSC 04/04 Q1030 NOSIG cycle: 1
Sunrise: 05:00 Sunset: 15:56 (UTC)

Beograd / Surcin, Serbia and Montenegro (LYBE) 44-49N 020-17E 99M Feb 25, 2021 - 08:00 PM EST / 2021.02.26 0100 UTC
Wind: from the SE (140 degrees) at 3 MPH (3 KT):0
Visibility: 3 mile(s):0 Weather: mist Temperature: 44 F (7 C) Dew Point: 41 F (5 C) Relative Humidity: 87% Pressure (altimeter): 30.42 in. Hg (1030 hPa)
ob: LYBE 260100Z 14003KT 5000 BR NSC 07/05 Q1030 BECMG 3000 cycle: 1
Sunrise: 05:23 Sunset: 16:19 (UTC)

TAF:2021/02/25 18:21 TAF LYBE 251700Z 2518/2618 10005KT CAVOK TX19/2613Z TN03/2605Z BECMG 2523/2601 3000 BR TEMPO 2604/2607 0400 FG BECMG 2608/2610 6000 NSW

This route has never been flown.

Route map